Time;durP1;ratioP1;P1;durP2;ratioP2;P2;SDS_P1;SDS_P2;PMS_P1;PMS_P2;Temp;Humidity;BMP_temperature;BMP_pressure;BME280_temperature;BME280_humidity;BME280_pressure;Samples;Min_cycle;Max_cycle;Signal;HPM_P1;HPM_P2
2023/12/18 00:00:11;;;;;;;9.03;5.97;;;;;;;-141.84;100.00;94229.53;4895302;29;20253;-64
2023/12/18 00:02:39;;;;;;;8.33;5.83;;;;;;;-141.84;100.00;97411.59;4895494;29;20230;-64
2023/12/18 00:05:09;;;;;;;7.37;5.60;;;;;;;-141.84;100.00;99534.38;4894966;29;20278;-64
2023/12/18 00:07:38;;;;;;;7.07;5.63;;;;;;;-141.84;100.00;100065.22;4895227;29;20231;-64
2023/12/18 00:10:08;;;;;;;7.43;6.03;;;;;;;-141.84;100.00;104580.41;4895395;29;20234;-65
2023/12/18 00:12:36;;;;;;;6.03;5.40;;;;;;;-141.84;100.00;108568.56;4894753;29;20738;-64
2023/12/18 00:15:08;;;;;;;9.73;6.60;;;;;;;-141.84;100.00;107504.66;4895151;29;20631;-65
2023/12/18 00:17:38;;;;;;;8.03;6.77;;;;;;;-141.84;100.00;108302.56;4894786;29;20380;-64
2023/12/18 00:20:08;;;;;;;8.50;6.47;;;;;;;-141.84;100.00;109100.59;4887964;29;20706;-64
2023/12/18 00:22:36;;;;;;;7.90;6.10;;;;;;;-141.84;100.00;108568.56;4894861;29;20305;-64
2023/12/18 00:25:05;;;;;;;7.57;6.27;;;;;;;-141.84;100.00;108036.56;4892689;29;20221;-64
2023/12/18 00:27:34;;;;;;;8.33;6.00;;;;;;;-141.84;100.00;107238.72;4892918;29;20670;-63
2023/12/18 00:30:02;;;;;;;6.97;6.27;;;;;;;-141.84;100.00;106706.94;4895176;29;20649;-64
2023/12/18 00:32:32;;;;;;;7.43;5.70;;;;;;;-141.84;100.00;108568.56;4894744;29;20919;-64
2023/12/18 00:35:03;;;;;;;7.40;5.97;;;;;;;-141.84;100.00;107770.63;4894801;29;20826;-65
2023/12/18 00:37:32;;;;;;;6.73;5.07;;;;;;;-141.84;100.00;101923.81;4854119;29;20218;-64
2023/12/18 00:40:00;;;;;;;6.60;5.87;;;;;;;-141.84;100.00;103783.25;4895854;29;20258;-64
2023/12/18 00:42:29;;;;;;;7.73;6.13;;;;;;;-141.84;100.00;104580.41;4894893;29;20758;-64
2023/12/18 00:44:57;;;;;;;6.43;5.00;;;;;;;-141.84;100.00;103783.25;4894707;29;20223;-64
2023/12/18 00:47:26;;;;;;;7.40;5.43;;;;;;;-141.84;100.00;100861.66;4894789;29;20581;-63
2023/12/18 00:49:58;;;;;;;7.97;5.50;;;;;;;-141.84;100.00;100330.69;4894893;29;20279;-65
2023/12/18 00:52:28;;;;;;;6.43;5.27;;;;;;;-141.84;100.00;100861.66;4894817;29;20210;-62
2023/12/18 00:54:56;;;;;;;6.07;5.17;;;;;;;-141.84;100.00;104048.94;4895319;29;20637;-64
2023/12/18 00:57:25;;;;;;;7.33;5.63;;;;;;;-141.84;100.00;102455.00;4894639;29;20248;-64
2023/12/18 00:59:53;;;;;;;7.23;5.37;;;;;;;-141.84;100.00;100330.69;4895696;29;20227;-64
2023/12/18 01:02:22;;;;;;;5.97;5.37;;;;;;;-141.84;100.00;100596.16;4894776;29;20222;-64
2023/12/18 01:04:50;;;;;;;6.23;5.17;;;;;;;-141.84;100.00;99799.78;4894553;29;20310;-63
2023/12/18 01:07:19;;;;;;;7.50;5.37;;;;;;;-141.84;100.00;100861.66;4895072;29;20206;-66
2023/12/18 01:09:49;;;;;;;7.53;5.17;;;;;;;-141.84;100.00;100330.69;4894416;29;20281;-64
2023/12/18 01:12:17;;;;;;;6.27;4.97;;;;;;;-141.84;100.00;99003.56;4894580;29;20659;-63
2023/12/18 01:14:46;;;;;;;6.73;5.47;;;;;;;-141.84;100.00;99003.56;4894680;29;20226;-65
2023/12/18 01:17:14;;;;;;;8.13;6.13;;;;;;;-141.84;100.00;101658.25;4894444;29;20755;-64
2023/12/18 01:19:47;;;;;;;6.80;5.20;;;;;;;-141.84;100.00;103251.88;4895121;29;20234;-65
2023/12/18 01:22:18;;;;;;;6.80;5.40;;;;;;;-141.84;100.00;102720.59;4896046;29;20199;-63
2023/12/18 01:24:51;;;;;;;6.37;5.60;;;;;;;-141.84;100.00;101392.69;4894916;29;20226;-64
2023/12/18 01:27:20;;;;;;;6.03;5.43;;;;;;;-141.84;100.00;100330.69;4894695;29;20265;-64
2023/12/18 01:29:48;;;;;;;6.30;5.20;;;;;;;-141.84;100.00;96350.63;4894400;29;20237;-64
2023/12/18 01:32:17;;;;;;;7.97;5.53;;;;;;;-141.84;100.00;96350.63;4894131;29;20231;-63
2023/12/18 01:34:45;;;;;;;8.10;5.60;;;;;;;-141.84;100.00;99268.97;4894465;29;20679;-63
2023/12/18 01:37:15;;;;;;;7.57;5.53;;;;;;;-141.84;100.00;99534.38;4894634;29;20191;-65
2023/12/18 01:39:44;;;;;;;6.53;5.80;;;;;;;-141.84;100.00;102455.00;4894214;29;20313;-64
2023/12/18 01:42:14;;;;;;;6.20;5.43;;;;;;;-141.84;100.00;108036.56;4894192;29;20745;-65
2023/12/18 01:44:45;;;;;;;7.10;6.10;;;;;;;-141.84;100.00;105643.53;4894530;29;20261;-64
2023/12/18 01:47:14;;;;;;;7.23;5.77;;;;;;;-141.84;100.00;106706.94;4897465;29;20318;-63
2023/12/18 01:49:43;;;;;;;7.80;5.67;;;;;;;-141.84;100.00;105643.53;4898028;29;20289;-64
2023/12/18 01:52:12;;;;;;;7.50;5.90;;;;;;;-141.84;100.00;106175.19;4898722;29;20199;-64
2023/12/18 01:54:41;;;;;;;6.47;5.70;;;;;;;-141.84;100.00;106706.94;4889816;29;20359;-65
2023/12/18 01:57:10;;;;;;;7.47;5.87;;;;;;;-141.84;100.00;105909.34;4898264;29;20223;-64
2023/12/18 01:59:41;;;;;;;7.67;5.63;;;;;;;-141.84;100.00;108568.56;4898150;29;20223;-64
2023/12/18 02:02:12;;;;;;;8.83;5.53;;;;;;;-141.84;100.00;109632.72;4897766;29;20290;-65
2023/12/18 02:04:41;;;;;;;7.03;5.70;;;;;;;-141.84;100.00;108302.56;4897578;29;20619;-64
2023/12/18 02:07:11;;;;;;;9.20;5.83;;;;;;;-141.84;100.00;104314.66;4897822;29;20203;-65
2023/12/18 02:09:41;;;;;;;8.50;5.87;;;;;;;-141.84;100.00;105377.72;4897415;29;20314;-64
2023/12/18 02:12:10;;;;;;;7.60;5.60;;;;;;;-141.84;100.00;106441.06;4897533;29;20223;-64
2023/12/18 02:14:40;;;;;;;6.63;5.93;;;;;;;-141.84;100.00;107770.63;4897157;29;20242;-64
2023/12/18 02:17:09;;;;;;;8.10;5.20;;;;;;;-141.84;100.00;110164.91;4897543;29;20310;-64
2023/12/18 02:19:37;;;;;;;9.27;6.00;;;;;;;-141.84;100.00;110164.91;4895974;29;20302;-63
2023/12/18 02:22:06;;;;;;;7.20;5.33;;;;;;;-141.84;100.00;108834.56;4897826;29;20238;-64
2023/12/18 02:24:36;;;;;;;6.73;5.30;;;;;;;-141.84;100.00;111495.69;4897157;29;20921;-63
2023/12/18 02:27:05;;;;;;;6.47;5.13;;;;;;;-141.84;100.00;112028.13;4897122;29;20230;-63
2023/12/18 02:29:33;;;;;;;7.90;6.30;;;;;;;-141.84;100.00;113359.50;4897021;29;20225;-64
2023/12/18 02:32:02;;;;;;;7.90;5.93;;;;;;;-141.84;100.00;113892.16;4897230;29;20678;-64
2023/12/18 02:34:30;;;;;;;6.67;5.27;;;;;;;-141.84;100.00;113625.81;4897375;29;20266;-63
2023/12/18 02:37:02;;;;;;;7.50;5.00;;;;;;;-141.84;100.00;113625.81;4897545;29;20194;-63
2023/12/18 02:39:31;;;;;;;5.50;4.83;;;;;;;-141.84;100.00;114957.72;4896767;29;20240;-64
2023/12/18 02:42:01;;;;;;;6.03;5.10;;;;;;;-141.84;100.00;116023.56;4896990;29;20241;-65
2023/12/18 02:44:29;;;;;;;7.40;5.73;;;;;;;-141.84;100.00;114957.72;4897024;29;20230;-64
2023/12/18 02:46:58;;;;;;;8.30;5.37;;;;;;;-141.84;100.00;114691.31;4896902;29;20237;-64
2023/12/18 02:49:26;;;;;;;7.87;5.07;;;;;;;-141.84;100.00;113892.16;4895705;29;20210;-62
2023/12/18 02:51:55;;;;;;;8.33;5.13;;;;;;;-141.84;100.00;114158.53;4896897;29;20724;-64
2023/12/18 02:54:24;;;;;;;5.97;4.80;;;;;;;-141.84;100.00;115490.59;4895868;29;20345;-64
2023/12/18 02:56:53;;;;;;;6.10;5.50;;;;;;;-141.84;100.00;117089.69;4895709;29;20286;-64
2023/12/18 02:59:22;;;;;;;7.83;5.37;;;;;;;-141.84;100.00;116823.13;4895987;29;20226;-64
2023/12/18 03:01:51;;;;;;;6.23;4.93;;;;;;;-141.84;100.00;115224.16;4896147;29;20253;-64
2023/12/18 03:04:22;;;;;;;7.30;5.23;;;;;;;-141.84;100.00;115757.06;4896856;29;20209;-64
2023/12/18 03:06:53;;;;;;;7.10;5.23;;;;;;;-141.84;100.00;117622.84;4896356;29;20909;-64
2023/12/18 03:09:22;;;;;;;6.97;5.97;;;;;;;-141.84;100.00;118689.38;4896015;29;20525;-65
2023/12/18 03:11:50;;;;;;;7.33;5.10;;;;;;;-141.84;100.00;119222.75;4896474;29;20226;-64
2023/12/18 03:14:19;;;;;;;5.67;4.83;;;;;;;-141.84;100.00;119224.81;4896236;29;20226;-64
2023/12/18 03:16:49;;;;;;;5.87;4.90;;;;;;;-141.84;100.00;119224.81;4896357;29;20290;-64
2023/12/18 03:19:18;;;;;;;5.30;4.80;;;;;;;-141.84;100.00;119224.81;4896679;29;20227;-64
2023/12/18 03:21:48;;;;;;;7.70;5.40;;;;;;;-141.84;100.00;119224.81;4895827;29;20713;-64
2023/12/18 03:24:17;;;;;;;6.47;5.07;;;;;;;-141.84;100.00;119224.81;4896649;29;20814;-64
2023/12/18 03:26:47;;;;;;;6.93;5.20;;;;;;;-141.84;100.00;119224.81;4896686;29;20238;-63
2023/12/18 03:29:17;;;;;;;6.77;5.57;;;;;;;-141.84;100.00;119224.81;4895935;29;20309;-63
2023/12/18 03:31:46;;;;;;;5.77;5.17;;;;;;;-141.84;100.00;118956.03;4896228;29;20243;-66
2023/12/18 03:34:16;;;;;;;7.03;5.17;;;;;;;-141.84;100.00;119224.81;4896449;29;20638;-64
2023/12/18 03:36:44;;;;;;;7.80;5.07;;;;;;;-141.84;100.00;119224.81;4896337;29;20226;-64
2023/12/18 03:39:13;;;;;;;6.57;5.40;;;;;;;-141.84;100.00;119224.81;4895955;29;20234;-64
2023/12/18 03:41:41;;;;;;;7.63;5.33;;;;;;;-141.84;100.00;119224.81;4895859;29;20258;-63
2023/12/18 03:44:10;;;;;;;6.47;5.07;;;;;;;-141.84;100.00;119224.81;4894685;29;20649;-63
2023/12/18 03:46:39;;;;;;;5.80;5.07;;;;;;;-141.84;100.00;119224.81;4895775;29;20209;-66
2023/12/18 03:49:07;;;;;;;6.63;5.30;;;;;;;-141.84;100.00;119224.81;4896252;29;20287;-56
2023/12/18 03:51:38;;;;;;;7.37;5.37;;;;;;;-141.84;100.00;119224.81;4895429;29;20257;-57
2023/12/18 03:54:07;;;;;;;7.23;5.63;;;;;;;-141.84;100.00;119224.81;4895026;29;20921;-58
2023/12/18 03:56:36;;;;;;;8.80;5.73;;;;;;;-141.84;100.00;119224.81;4895524;29;20245;-58
2023/12/18 03:59:04;;;;;;;7.10;5.57;;;;;;;-141.84;100.00;119224.81;4895262;29;20317;-58
2023/12/18 04:01:33;;;;;;;6.87;5.57;;;;;;;-141.84;100.00;119224.81;4894872;29;20202;-57
2023/12/18 04:04:04;;;;;;;6.90;5.70;;;;;;;-141.84;100.00;119224.81;4895893;29;20266;-57
2023/12/18 04:06:34;;;;;;;5.90;5.30;;;;;;;-141.84;100.00;119224.81;4895361;29;20233;-56
2023/12/18 04:09:04;;;;;;;7.27;5.70;;;;;;;-141.84;100.00;119224.81;4894689;29;20226;-54
2023/12/18 04:11:32;;;;;;;6.70;5.53;;;;;;;-141.84;100.00;119224.81;4895434;29;20313;-58
2023/12/18 04:14:02;;;;;;;8.40;6.03;;;;;;;-141.84;100.00;119224.81;4895152;29;20229;-55
2023/12/18 04:16:31;;;;;;;7.57;6.23;;;;;;;-141.84;100.00;119224.81;4895128;29;20206;-56
2023/12/18 04:18:59;;;;;;;9.27;6.90;;;;;;;-141.84;100.00;119224.81;4895870;29;20225;-57
2023/12/18 04:21:28;;;;;;;9.37;6.70;;;;;;;-141.84;100.00;119224.81;4895232;29;20306;-57
2023/12/18 04:23:56;;;;;;;10.43;6.90;;;;;;;-141.84;100.00;119224.81;4894578;29;20231;-58
2023/12/18 04:26:26;;;;;;;9.37;6.10;;;;;;;-141.84;100.00;119224.81;4895000;29;20257;-56
2023/12/18 04:28:55;;;;;;;7.67;6.60;;;;;;;-141.84;100.00;119224.81;4894896;29;20282;-58
2023/12/18 04:31:23;;;;;;;8.50;6.80;;;;;;;-141.84;100.00;119224.81;4895446;29;20233;-58
2023/12/18 04:33:52;;;;;;;8.83;6.60;;;;;;;-141.84;100.00;119224.81;4895051;29;20245;-57
2023/12/18 04:36:20;;;;;;;10.83;7.43;;;;;;;-141.84;100.00;119224.81;4894595;29;20585;-56
2023/12/18 04:38:49;;;;;;;10.47;7.70;;;;;;;-141.84;100.00;119224.81;4894805;29;20223;-58
2023/12/18 04:41:19;;;;;;;10.07;8.37;;;;;;;-141.84;100.00;119224.81;4894782;29;20226;-57
2023/12/18 04:43:49;;;;;;;12.07;8.63;;;;;;;-141.84;100.00;119224.81;4894537;29;20261;-55
2023/12/18 04:46:18;;;;;;;9.43;7.80;;;;;;;-141.84;100.00;119224.81;4895376;29;20241;-58
2023/12/18 04:48:47;;;;;;;11.03;7.97;;;;;;;-141.84;100.00;119224.81;4894649;29;20234;-57
2023/12/18 04:51:15;;;;;;;11.60;8.53;;;;;;;-141.84;100.00;119224.81;4894479;29;20230;-56
2023/12/18 04:53:44;;;;;;;12.03;9.20;;;;;;;-141.84;100.00;119224.81;4893972;29;20228;-55
2023/12/18 04:56:12;;;;;;;14.27;11.07;;;;;;;-141.84;100.00;119224.81;4894782;29;20398;-56
2023/12/18 04:58:41;;;;;;;13.57;10.07;;;;;;;-141.84;100.00;119224.81;4894616;29;20300;-55
2023/12/18 05:01:12;;;;;;;15.53;11.27;;;;;;;-141.84;100.00;119224.81;4894605;29;20328;-55
2023/12/18 05:03:40;;;;;;;13.20;10.00;;;;;;;-141.84;100.00;119224.81;4894404;29;20237;-56
2023/12/18 05:06:20;;;;;;;12.93;9.53;;;;;;;-141.84;100.00;119224.81;4894513;29;20301;-56
2023/12/18 05:08:49;;;;;;;12.47;9.60;;;;;;;-141.84;100.00;119224.81;4894544;29;20308;-55
2023/12/18 05:11:18;;;;;;;13.07;9.53;;;;;;;-141.84;100.00;119224.81;4894448;29;20257;-57
2023/12/18 05:13:48;;;;;;;14.37;10.43;;;;;;;-141.84;100.00;119224.81;4894319;29;20270;-58
2023/12/18 05:16:18;;;;;;;16.13;11.00;;;;;;;-141.84;100.00;119224.81;4894902;29;20254;-57
2023/12/18 05:18:47;;;;;;;15.40;10.80;;;;;;;-141.84;100.00;119224.81;4888270;29;20233;-56
2023/12/18 05:21:16;;;;;;;13.50;10.37;;;;;;;-141.84;100.00;119224.81;4896597;29;20317;-57
2023/12/18 05:23:47;;;;;;;14.67;11.00;;;;;;;-141.84;100.00;119224.81;4896419;29;20237;-58
2023/12/18 05:26:15;;;;;;;13.30;10.30;;;;;;;-141.84;100.00;119224.81;4898476;29;20230;-56
2023/12/18 05:28:44;;;;;;;17.00;12.07;;;;;;;-141.84;100.00;119224.81;4898329;29;20273;-57
2023/12/18 05:31:14;;;;;;;17.93;10.60;;;;;;;-141.84;100.00;119224.81;4898153;29;20202;-56
2023/12/18 05:33:44;;;;;;;15.73;10.77;;;;;;;-141.84;100.00;119224.81;4895388;29;20221;-54
2023/12/18 05:36:14;;;;;;;15.20;10.27;;;;;;;-141.84;100.00;119224.81;4896356;29;20267;-57
2023/12/18 05:38:43;;;;;;;13.50;9.10;;;;;;;-141.84;100.00;119224.81;4895592;29;20709;-55
2023/12/18 05:41:11;;;;;;;13.10;9.57;;;;;;;-141.84;100.00;119224.81;4897845;29;20733;-58
2023/12/18 05:43:40;;;;;;;12.17;9.57;;;;;;;-141.84;100.00;119224.81;4897479;29;20213;-56
2023/12/18 05:46:12;;;;;;;12.97;9.00;;;;;;;-141.84;100.00;119224.81;4898383;29;20203;-58
2023/12/18 05:48:40;;;;;;;9.47;8.30;;;;;;;-141.84;100.00;119224.81;4897860;29;20234;-57
2023/12/18 05:51:20;;;;;;;10.20;7.57;;;;;;;-141.84;100.00;119224.81;4897629;29;20289;-58
2023/12/18 05:53:49;;;;;;;9.83;6.83;;;;;;;-141.84;100.00;119224.81;4893010;29;20799;-58
2023/12/18 05:56:18;;;;;;;8.07;7.03;;;;;;;-141.84;100.00;119224.81;4897811;29;20328;-58
2023/12/18 05:58:47;;;;;;;8.67;6.60;;;;;;;-141.84;100.00;119224.81;4897828;29;20238;-56
2023/12/18 06:01:15;;;;;;;8.03;6.53;;;;;;;-141.84;100.00;119224.81;4896894;29;20702;-58
2023/12/18 06:03:44;;;;;;;9.37;7.07;;;;;;;-141.84;100.00;119224.81;4895941;29;20226;-56
2023/12/18 06:06:12;;;;;;;8.70;7.07;;;;;;;-141.84;100.00;119224.81;4891536;29;20316;-54
2023/12/18 06:08:43;;;;;;;11.23;8.27;;;;;;;-141.84;100.00;119224.81;4897417;29;20230;-54
2023/12/18 06:11:11;;;;;;;13.37;8.37;;;;;;;-141.84;100.00;119224.81;4897507;29;20226;-57
2023/12/18 06:13:40;;;;;;;11.80;9.47;;;;;;;-141.84;100.00;119224.81;4896479;29;20267;-57
2023/12/18 06:16:08;;;;;;;11.40;7.43;;;;;;;-141.84;100.00;119224.81;4897541;29;20203;-57
2023/12/18 06:18:37;;;;;;;10.00;8.07;;;;;;;-141.84;100.00;119224.81;4896887;29;20310;-56
2023/12/18 06:21:07;;;;;;;11.80;7.60;;;;;;;-141.84;100.00;119224.81;4897358;29;20328;-56
2023/12/18 06:23:35;;;;;;;9.77;7.93;;;;;;;-141.84;100.00;119224.81;4895023;29;20270;-57
2023/12/18 06:26:06;;;;;;;10.90;7.60;;;;;;;-141.84;100.00;119224.81;4897043;29;20289;-56
2023/12/18 06:28:35;;;;;;;11.33;7.97;;;;;;;-141.84;100.00;119224.81;4896912;29;20290;-56
2023/12/18 06:31:03;;;;;;;9.23;7.20;;;;;;;-141.84;100.00;119224.81;4897414;29;20221;-55
2023/12/18 06:33:32;;;;;;;11.40;7.70;;;;;;;-141.84;100.00;118956.03;4896939;29;20231;-58
2023/12/18 06:36:01;;;;;;;10.73;8.10;;;;;;;-141.84;100.00;119224.81;4897086;29;20227;-56
2023/12/18 06:38:29;;;;;;;7.93;7.00;;;;;;;-141.84;100.00;119224.81;4895902;29;20282;-55
2023/12/18 06:40:58;;;;;;;13.60;8.07;;;;;;;-141.84;100.00;119222.75;4894390;29;20310;-57
2023/12/18 06:43:27;;;;;;;11.17;7.97;;;;;;;-141.84;100.00;118956.03;4897191;29;20270;-56
2023/12/18 06:45:56;;;;;;;11.17;7.53;;;;;;;-141.84;100.00;119222.75;4896965;29;20644;-57
2023/12/18 06:48:24;;;;;;;11.50;7.73;;;;;;;-141.84;100.00;119224.81;4895332;29;20321;-54
2023/12/18 06:50:53;;;;;;;13.33;8.40;;;;;;;-141.84;100.00;119224.81;4894174;29;20282;-56
2023/12/18 06:53:21;;;;;;;10.63;7.80;;;;;;;-141.84;100.00;119224.81;4894654;29;20238;-56
2023/12/18 06:55:50;;;;;;;14.37;7.90;;;;;;;-141.84;100.00;119224.81;4896990;29;20238;-57
2023/12/18 06:58:18;;;;;;;10.33;8.07;;;;;;;-141.84;100.00;119224.81;4892424;29;20226;-57
2023/12/18 07:00:48;;;;;;;10.00;7.67;;;;;;;-141.84;100.00;119224.81;4896202;29;20309;-54
2023/12/18 07:03:17;;;;;;;12.60;8.60;;;;;;;-141.84;100.00;119224.81;4896427;29;20229;-55
2023/12/18 07:05:46;;;;;;;13.93;9.93;;;;;;;-141.84;100.00;119224.81;4896344;29;20775;-57
2023/12/18 07:08:14;;;;;;;14.30;9.07;;;;;;;-141.84;100.00;119224.81;4895869;29;20325;-57
2023/12/18 07:10:43;;;;;;;13.87;9.47;;;;;;;-141.84;100.00;119224.81;4896304;29;20302;-54
2023/12/18 07:13:11;;;;;;;10.83;8.77;;;;;;;-141.84;100.00;119224.81;4896749;29;20207;-53
2023/12/18 07:15:40;;;;;;;11.97;8.60;;;;;;;-141.84;100.00;119224.81;4893347;29;20643;-55
2023/12/18 07:18:12;;;;;;;13.37;8.77;;;;;;;-141.84;100.00;119224.81;4894880;29;20219;-57
2023/12/18 07:20:40;;;;;;;10.73;8.27;;;;;;;-141.84;100.00;119224.81;4896206;29;20255;-57
2023/12/18 07:23:10;;;;;;;10.27;8.33;;;;;;;-141.84;100.00;119224.81;4894550;29;20305;-56
2023/12/18 07:25:39;;;;;;;14.80;9.33;;;;;;;-141.84;100.00;119224.81;4895212;29;20280;-56
2023/12/18 07:28:09;;;;;;;13.53;10.97;;;;;;;-141.84;100.00;119224.81;4888326;29;20704;-56
2023/12/18 07:30:38;;;;;;;16.30;10.73;;;;;;;-141.84;100.00;119224.81;4894883;29;20250;-57
2023/12/18 07:33:09;;;;;;;14.17;9.87;;;;;;;-141.84;100.00;119224.81;4895374;29;20234;-57
2023/12/18 07:35:38;;;;;;;14.53;10.00;;;;;;;-141.84;100.00;119224.81;4895788;29;20762;-57
2023/12/18 07:38:06;;;;;;;12.07;9.57;;;;;;;-141.84;100.00;119224.81;4895482;29;20265;-57
2023/12/18 07:40:35;;;;;;;12.73;9.20;;;;;;;-141.84;100.00;119224.81;4895703;29;20346;-52
2023/12/18 07:43:04;;;;;;;13.57;10.07;;;;;;;-141.84;100.00;119224.81;4894438;29;20209;-58
2023/12/18 07:45:32;;;;;;;13.57;9.90;;;;;;;-141.84;100.00;119224.81;4893267;29;20236;-58
2023/12/18 07:48:01;;;;;;;17.67;11.27;;;;;;;-141.84;100.00;119224.81;4895082;29;20734;-53
2023/12/18 07:50:31;;;;;;;15.67;10.97;;;;;;;-141.84;100.00;119224.81;4895466;29;20227;-53
2023/12/18 07:53:00;;;;;;;15.93;11.93;;;;;;;-141.84;100.00;119224.81;4895164;29;20234;-65
2023/12/18 07:55:28;;;;;;;15.17;11.57;;;;;;;-141.84;100.00;119224.81;4894865;29;20313;-55
2023/12/18 07:57:57;;;;;;;15.93;12.60;;;;;;;-141.84;100.00;119224.81;4894947;29;20699;-55
2023/12/18 08:00:25;;;;;;;17.03;12.87;;;;;;;-141.84;100.00;119224.81;4895374;29;20714;-56
2023/12/18 08:02:54;;;;;;;16.73;11.97;;;;;;;-141.84;100.00;119224.81;4895485;29;20445;-55
2023/12/18 08:05:23;;;;;;;17.10;11.73;;;;;;;-141.84;100.00;119224.81;4895409;29;20222;-56
2023/12/18 08:07:53;;;;;;;16.17;12.63;;;;;;;-141.84;100.00;119224.81;4895017;29;20230;-55
2023/12/18 08:10:21;;;;;;;17.47;11.83;;;;;;;-141.84;100.00;119224.81;4895749;29;20206;-56
2023/12/18 08:12:50;;;;;;;15.37;11.30;;;;;;;-141.84;100.00;119224.81;4895039;29;20651;-57
2023/12/18 08:15:19;;;;;;;16.07;11.50;;;;;;;-141.84;100.00;119224.81;4895102;29;20230;-56
2023/12/18 08:17:48;;;;;;;17.87;12.40;;;;;;;-141.84;100.00;119224.81;4895142;29;20282;-56
2023/12/18 08:20:18;;;;;;;18.30;13.00;;;;;;;-141.84;100.00;119224.81;4895172;29;20226;-55
2023/12/18 08:22:46;;;;;;;16.93;12.87;;;;;;;-141.84;100.00;119224.81;4887531;29;20468;-54
2023/12/18 08:25:16;;;;;;;15.87;12.33;;;;;;;-141.84;100.00;119224.81;4895897;29;20286;-56
2023/12/18 08:27:45;;;;;;;16.23;11.97;;;;;;;-141.84;100.00;118689.38;4894945;29;20313;-55
2023/12/18 08:30:14;;;;;;;16.53;12.13;;;;;;;-141.84;100.00;117889.44;4895165;29;20254;-55
2023/12/18 08:32:42;;;;;;;15.50;12.27;;;;;;;-141.84;100.00;118422.72;4895079;29;20384;-56
2023/12/18 08:35:11;;;;;;;15.70;12.10;;;;;;;-141.84;100.00;118689.38;4894706;29;20242;-57
2023/12/18 08:37:40;;;;;;;16.17;12.20;;;;;;;-141.84;100.00;119222.75;4894692;29;20214;-58
2023/12/18 08:40:10;;;;;;;15.37;11.50;;;;;;;-141.84;100.00;119224.81;4895280;29;20286;-56
2023/12/18 08:42:40;;;;;;;17.13;12.37;;;;;;;-141.84;100.00;119224.81;4894940;29;20330;-54
2023/12/18 08:45:09;;;;;;;14.17;11.17;;;;;;;-141.84;100.00;119224.81;4894797;29;20222;-55
2023/12/18 08:47:38;;;;;;;17.00;11.60;;;;;;;-141.84;100.00;117622.84;4894913;29;20233;-56
2023/12/18 08:50:07;;;;;;;15.40;11.00;;;;;;;-141.84;100.00;114957.72;4887047;29;20344;-56
2023/12/18 08:52:36;;;;;;;15.30;10.60;;;;;;;-141.84;100.00;114691.31;4894585;29;20210;-56
2023/12/18 08:55:05;;;;;;;14.43;11.20;;;;;;;-141.84;100.00;114957.72;4896185;29;20238;-57
2023/12/18 08:57:33;;;;;;;13.17;10.40;;;;;;;-141.84;100.00;110431.03;4895267;29;20502;-58
2023/12/18 09:00:05;;;;;;;12.70;10.50;;;;;;;-141.84;100.00;109898.81;4894767;29;20287;-56
2023/12/18 09:02:33;;;;;;;12.83;10.27;;;;;;;-141.84;100.00;110431.03;4894750;29;20234;-57
2023/12/18 09:05:02;;;;;;;13.30;10.57;;;;;;;-141.84;100.00;105111.94;4894994;29;20230;-54
2023/12/18 09:07:30;;;;;;;14.47;10.50;;;;;;;-141.84;100.00;102986.25;4894889;29;20234;-57
2023/12/18 09:09:59;;;;;;;14.37;10.00;;;;;;;-141.84;100.00;103517.56;4895296;29;20768;-56
2023/12/18 09:12:27;;;;;;;14.83;10.10;;;;;;;-141.84;100.00;105643.53;4894808;29;20225;-58
2023/12/18 09:14:56;;;;;;;14.57;10.03;;;;;;;-141.84;100.00;106972.81;4894511;29;20304;-54
2023/12/18 09:17:28;;;;;;;13.07;10.40;;;;;;;-141.84;100.00;100330.69;4894583;29;20238;-65
2023/12/18 09:19:57;;;;;;;12.10;8.97;;;;;;;-141.84;100.00;97676.88;4894157;29;20717;-65
2023/12/18 09:22:25;;;;;;;13.40;9.77;;;;;;;-141.84;100.00;83640.72;4894836;29;20232;-66
2023/12/18 09:24:54;;;;;;;10.97;9.40;;;;;;;-141.84;100.00;81790.53;4894528;29;20634;-65
2023/12/18 09:27:22;;;;;;;12.07;9.87;;;;;;;-141.84;99.08;77300.78;4894242;29;20300;-65
2023/12/18 09:29:51;;;;;;;10.43;9.23;;;;;;;-141.84;97.06;70443.78;4894127;29;20930;-66
2023/12/18 09:32:19;;;;;;;13.23;9.40;;;;;;;-141.84;96.84;68072.97;4894310;29;20241;-65
2023/12/18 09:34:49;;;;;;;13.43;10.10;;;;;;;-141.84;98.13;71497.94;4894045;29;20283;-65
2023/12/18 09:37:18;;;;;;;14.60;10.93;;;;;;;-141.84;97.00;69126.50;4894166;29;20203;-65
2023/12/18 09:39:47;;;;;;;15.00;12.93;;;;;;;-141.84;96.74;65966.75;4893720;29;20254;-65
2023/12/18 09:42:15;;;;;;;15.87;12.30;;;;;;;-141.84;96.74;68599.69;4894139;29;20274;-65
2023/12/18 09:44:49;;;;;;;14.23;11.60;;;;;;;-141.84;96.90;67019.72;4886169;29;20234;-66
2023/12/18 09:47:18;;;;;;;15.83;11.67;;;;;;;-141.84;97.53;70970.84;4894403;29;20227;-65
2023/12/18 09:49:46;;;;;;;13.57;11.03;;;;;;;-141.84;97.22;68599.69;4893941;29;25504;-65
2023/12/18 09:52:20;;;;;;;13.67;9.97;;;;;;;-141.84;95.45;60706.06;4894665;29;20237;-65
2023/12/18 09:54:49;;;;;;;13.33;10.63;;;;;;;-141.84;96.47;65177.19;4894212;29;20676;-65
2023/12/18 09:57:20;;;;;;;13.07;10.77;;;;;;;-141.84;95.18;61757.66;4894110;29;20317;-65
2023/12/18 09:59:50;;;;;;;13.27;10.90;;;;;;;-141.84;92.88;48894.97;4894086;29;20591;-64
2023/12/18 10:02:19;;;;;;;13.40;10.00;;;;;;;-141.84;92.08;43133.44;4893813;29;20707;-64
2023/12/18 10:04:47;;;;;;;12.73;9.03;;;;;;;-141.84;90.57;38272.59;4886716;29;20237;-65
2023/12/18 10:07:18;;;;;;;11.70;8.97;;;;;;;-141.84;90.69;34608.97;4896360;29;20282;-65
2023/12/18 10:09:49;;;;;;;12.97;9.30;;;;;;;-141.84;91.61;41563.59;4897508;29;20262;-65
2023/12/18 10:12:18;;;;;;;11.23;8.77;;;;;;;-141.84;89.23;29351.16;4897784;29;20218;-65
2023/12/18 10:14:46;;;;;;;11.20;8.40;;;;;;;-141.84;87.92;24057.69;4897746;29;20226;-58
2023/12/18 10:17:15;;;;;;;13.00;8.97;;;;;;;-141.84;87.35;23734.19;4897291;29;20261;-57
2023/12/18 10:19:45;;;;;;;11.13;8.47;;;;;;;-141.84;86.80;21934.16;4897573;29;20199;-57
2023/12/18 10:22:14;;;;;;;10.60;8.07;;;;;;;-141.84;85.17;20571.97;4897839;29;20237;-57
2023/12/18 10:24:44;;;;;;;11.77;9.10;;;;;;;-141.84;83.87;19673.59;4897258;29;20323;-57
2023/12/18 10:27:12;;;;;;;12.13;8.70;;;;;;;-141.84;83.90;19685.81;4897335;29;20253;-56
2023/12/18 10:29:41;;;;;;;9.80;8.03;;;;;;;-141.84;81.69;19011.13;4897312;29;20242;-53
2023/12/18 10:32:09;;;;;;;9.83;7.57;;;;;;;-141.84;82.75;19157.44;4897444;29;20273;-55
2023/12/18 10:34:38;;;;;;;8.70;7.37;;;;;;;-141.84;83.53;19460.22;4897362;29;20263;-57
2023/12/18 10:37:08;;;;;;;10.43;7.50;;;;;;;-141.84;82.63;19244.81;4897617;29;20288;-57
2023/12/18 10:39:41;;;;;;;9.20;7.07;;;;;;;-141.84;83.43;19415.50;4896990;29;20286;-57
2023/12/18 10:42:23;;;;;;;9.63;7.87;;;;;;;-141.84;81.73;19053.81;4897349;29;20234;-58
2023/12/18 10:44:53;;;;;;;10.93;7.90;;;;;;;-141.84;82.05;19108.69;4890652;29;20223;-58
2023/12/18 10:47:22;;;;;;;11.10;8.63;;;;;;;-141.84;81.38;19011.13;4897147;29;20231;-58
2023/12/18 10:49:53;;;;;;;8.87;7.37;;;;;;;-141.84;80.55;18919.69;4897093;29;20399;-57
2023/12/18 10:52:23;;;;;;;9.77;7.50;;;;;;;-141.84;82.32;19112.75;4897406;29;20195;-58
2023/12/18 10:54:52;;;;;;;8.20;7.30;;;;;;;-141.84;82.06;19098.50;4897012;29;20262;-58
2023/12/18 10:57:24;;;;;;;10.07;7.50;;;;;;;-141.84;82.42;19175.72;4888961;29;20309;-57
2023/12/18 10:59:54;;;;;;;9.00;7.30;;;;;;;-141.84;80.64;18905.47;4897035;29;20233;-56
2023/12/18 11:02:24;;;;;;;9.70;7.50;;;;;;;-141.84;80.91;18911.56;4896284;29;20734;-57
2023/12/18 11:04:54;;;;;;;8.80;7.90;;;;;;;-141.84;79.63;18809.97;4896322;29;20310;-56
2023/12/18 11:07:24;;;;;;;9.30;7.57;;;;;;;-141.84;80.60;18877.03;4897122;29;20191;-56